Terminal Aerodrome Forecast
Issued by NWS

Home | Current Version | Previous Version | Text Only | Print | Product List | Glossary On
Versions: 1 2 3 4 5 6 7 8 9 10 11 12 13
000
FTUS44 KLZK 170542
TAFLLQ
TAF
KLLQ 170542Z 1706/1806 VRB03KT P6SM VCSH SCT025 OVC080
      TEMPO 1707/1711 5SM -RA BKN008 OVC012
     FM171100 VRB03KT 5SM BR OVC012
     FM171800 VRB04KT P6SM BKN015 OVC035=

USA.gov is the U.S. government's official web portal to all federal, state and local government web resources and services.